Time;durP1;ratioP1;P1;durP2;ratioP2;P2;SDS_P1;SDS_P2;PMS_P1;PMS_P2;Temp;Humidity;BMP_temperature;BMP_pressure;BME280_temperature;BME280_humidity;BME280_pressure;Samples;Min_cycle;Max_cycle;Signal;HPM_P1;HPM_P2
2021/07/01 00:01:13;;;;;;;19.40;12.05;;;16.30;99.90;;;;;;5010541;28;20203;-79
2021/07/01 00:03:42;;;;;;;16.45;11.43;;;16.20;99.90;;;;;;5017299;28;20231;-79
2021/07/01 00:06:08;;;;;;;20.98;13.20;;;16.20;99.90;;;;;;5012889;28;20215;-79
2021/07/01 00:08:35;;;;;;;20.05;12.20;;;16.10;99.90;;;;;;5011586;28;20258;-80
2021/07/01 00:11:03;;;;;;;19.10;11.77;;;16.10;99.90;;;;;;5018468;28;20208;-79
2021/07/01 00:13:30;;;;;;;23.20;12.52;;;16.20;99.90;;;;;;5017602;28;20265;-79
2021/07/01 00:15:57;;;;;;;17.52;11.02;;;16.20;99.90;;;;;;5025740;28;20258;-79
2021/07/01 00:18:24;;;;;;;13.73;10.80;;;16.20;99.90;;;;;;5014050;28;20201;-79
2021/07/01 00:20:52;;;;;;;15.43;10.85;;;16.10;99.90;;;;;;5019420;28;20260;-79
2021/07/01 00:23:19;;;;;;;17.98;11.45;;;16.10;99.90;;;;;;5015300;28;20235;-79
2021/07/01 00:25:46;;;;;;;15.25;11.48;;;16.10;99.90;;;;;;5011310;28;20223;-79
2021/07/01 00:28:13;;;;;;;20.30;11.77;;;16.10;99.90;;;;;;5025147;28;20227;-79
2021/07/01 00:30:40;;;;;;;21.67;12.02;;;16.20;99.90;;;;;;5018405;28;20199;-79
2021/07/01 00:33:07;;;;;;;21.67;11.13;;;16.20;99.90;;;;;;5017658;28;20211;-79
2021/07/01 00:35:34;;;;;;;18.05;11.63;;;16.20;99.90;;;;;;5014416;28;20203;-79
2021/07/01 00:38:02;;;;;;;18.17;10.85;;;16.20;99.90;;;;;;5010071;28;20255;-79
2021/07/01 00:40:29;;;;;;;14.73;11.25;;;16.20;99.90;;;;;;5014341;28;20271;-79
2021/07/01 00:42:56;;;;;;;18.42;9.75;;;16.20;99.90;;;;;;5013645;28;20215;-79
2021/07/01 00:45:23;;;;;;;19.90;10.60;;;16.30;99.90;;;;;;5010970;28;20624;-79
2021/07/01 00:47:50;;;;;;;15.70;11.40;;;16.30;99.90;;;;;;5017991;28;20254;-79
2021/07/01 00:50:17;;;;;;;15.85;10.55;;;16.20;99.90;;;;;;5020965;28;20568;-78
2021/07/01 00:52:44;;;;;;;17.48;11.30;;;16.20;99.90;;;;;;5016665;28;20200;-79
2021/07/01 00:55:14;;;;;;;19.70;11.07;;;16.10;99.90;;;;;;5016387;28;20257;-78
2021/07/01 00:57:41;;;;;;;17.00;11.30;;;16.10;99.90;;;;;;5018748;28;20203;-79
2021/07/01 01:00:30;;;;;;;16.38;11.35;;;16.10;99.90;;;;;;5011136;28;20204;-78
2021/07/01 01:02:57;;;;;;;19.85;11.43;;;16.20;99.90;;;;;;5018121;28;20223;-79
2021/07/01 01:05:25;;;;;;;21.17;11.10;;;16.20;99.90;;;;;;5015492;28;20235;-78
2021/07/01 01:07:52;;;;;;;17.40;10.88;;;16.20;99.90;;;;;;5025500;28;20341;-78
2021/07/01 01:10:21;;;;;;;20.23;11.73;;;16.20;99.90;;;;;;5013847;28;20564;-78
2021/07/01 01:12:47;;;;;;;19.50;11.73;;;16.30;99.90;;;;;;5015419;28;20202;-78
2021/07/01 01:15:14;;;;;;;19.08;10.73;;;16.20;99.90;;;;;;5020774;28;20199;-78
2021/07/01 01:17:43;;;;;;;16.73;10.20;;;16.20;99.90;;;;;;5016277;28;20212;-79
2021/07/01 01:20:12;;;;;;;15.77;11.52;;;16.20;99.90;;;;;;5018998;28;20290;-79
2021/07/01 01:22:41;;;;;;;20.85;11.63;;;16.20;99.90;;;;;;5023241;28;20225;-79
2021/07/01 01:25:09;;;;;;;14.30;10.48;;;16.20;99.90;;;;;;5022311;28;20203;-79
2021/07/01 01:27:36;;;;;;;12.90;9.80;;;16.10;99.90;;;;;;5017801;28;20219;-79
2021/07/01 01:30:03;;;;;;;19.90;9.63;;;16.10;99.90;;;;;;5009816;28;20205;-77
2021/07/01 01:32:30;;;;;;;13.90;10.63;;;16.10;99.90;;;;;;5025151;28;20203;-78
2021/07/01 01:34:57;;;;;;;18.30;10.05;;;16.20;99.90;;;;;;5012899;28;20247;-78
2021/07/01 01:37:24;;;;;;;14.68;10.35;;;16.30;99.90;;;;;;5013427;28;20205;-78
2021/07/01 01:39:53;;;;;;;20.13;10.25;;;16.30;99.90;;;;;;5013407;28;20726;-77
2021/07/01 01:42:20;;;;;;;18.13;10.25;;;16.40;99.90;;;;;;5013422;28;20200;-78
2021/07/01 01:44:47;;;;;;;22.10;10.93;;;16.40;99.90;;;;;;5015335;28;20233;-78
2021/07/01 01:47:17;;;;;;;12.75;10.23;;;16.30;99.90;;;;;;5018141;28;20258;-78
2021/07/01 01:49:45;;;;;;;15.48;10.90;;;16.20;99.90;;;;;;5016950;28;20568;-77
2021/07/01 01:52:12;;;;;;;15.77;10.95;;;16.10;99.90;;;;;;5009245;28;20199;-78
2021/07/01 01:54:39;;;;;;;16.83;10.18;;;16.20;99.90;;;;;;5004572;28;20665;-78
2021/07/01 01:57:08;;;;;;;15.30;10.45;;;16.10;99.90;;;;;;5003889;28;20542;-78
2021/07/01 01:59:35;;;;;;;16.67;10.07;;;16.10;99.90;;;;;;5002165;28;20208;-78
2021/07/01 02:02:02;;;;;;;14.90;10.00;;;16.20;99.90;;;;;;5001995;28;20271;-78
2021/07/01 02:04:29;;;;;;;17.33;10.20;;;16.00;99.90;;;;;;5004226;28;20211;-78
2021/07/01 02:06:56;;;;;;;20.17;10.40;;;16.00;99.90;;;;;;5004017;28;20204;-78
2021/07/01 02:09:23;;;;;;;16.65;10.88;;;16.00;99.90;;;;;;5006813;28;20207;-78
2021/07/01 02:11:51;;;;;;;16.33;9.35;;;16.00;99.90;;;;;;5008469;28;20235;-78
2021/07/01 02:14:19;;;;;;;16.63;10.65;;;16.00;99.90;;;;;;5007343;28;20265;-79
2021/07/01 02:16:46;;;;;;;15.10;9.20;;;16.00;99.90;;;;;;5002910;28;20262;-79
2021/07/01 02:19:13;;;;;;;13.48;10.75;;;16.10;99.90;;;;;;5002810;28;20237;-79
2021/07/01 02:21:40;;;;;;;19.00;10.82;;;16.00;99.90;;;;;;5007013;28;20205;-78
2021/07/01 02:24:07;;;;;;;20.15;11.48;;;16.00;99.90;;;;;;5006934;28;20231;-78
2021/07/01 02:26:34;;;;;;;17.25;10.07;;;15.90;99.90;;;;;;5007341;28;20271;-79
2021/07/01 02:29:01;;;;;;;14.52;10.32;;;15.90;99.90;;;;;;5007471;28;20259;-78
2021/07/01 02:31:29;;;;;;;14.85;9.75;;;15.80;99.90;;;;;;5007520;28;20231;-78
2021/07/01 02:33:56;;;;;;;20.92;10.23;;;15.80;99.90;;;;;;5002643;28;20214;-78
2021/07/01 02:36:23;;;;;;;15.75;9.98;;;15.80;99.90;;;;;;5006636;28;20212;-78
2021/07/01 02:38:50;;;;;;;18.90;10.00;;;15.90;99.90;;;;;;5007606;28;20671;-78
2021/07/01 02:41:17;;;;;;;16.95;10.07;;;15.90;99.90;;;;;;5000330;28;20207;-78
2021/07/01 02:43:44;;;;;;;20.52;10.68;;;16.00;99.90;;;;;;5006942;28;20207;-78
2021/07/01 02:46:11;;;;;;;15.40;10.13;;;15.90;99.90;;;;;;5009633;28;20204;-78
2021/07/01 02:48:39;;;;;;;16.52;11.20;;;15.90;99.90;;;;;;5007540;28;20286;-78
2021/07/01 02:51:06;;;;;;;17.45;11.82;;;15.80;99.90;;;;;;5011127;28;20257;-78
2021/07/01 02:53:33;;;;;;;19.42;12.00;;;15.70;99.90;;;;;;5005191;28;20320;-78
2021/07/01 02:56:00;;;;;;;25.08;12.55;;;15.70;99.90;;;;;;5008991;28;20208;-78
2021/07/01 02:58:27;;;;;;;16.20;10.32;;;15.70;99.90;;;;;;5009385;28;20225;-78
2021/07/01 03:00:54;;;;;;;16.13;10.70;;;15.60;99.90;;;;;;5009625;28;20203;-78
2021/07/01 03:03:21;;;;;;;19.92;11.80;;;15.60;99.90;;;;;;5009272;28;20204;-77
2021/07/01 03:05:49;;;;;;;22.33;11.95;;;15.70;99.90;;;;;;5007131;28;20226;-78
2021/07/01 03:08:16;;;;;;;19.50;11.27;;;15.70;99.90;;;;;;5009959;28;20225;-78
2021/07/01 03:10:43;;;;;;;20.02;11.85;;;15.80;99.90;;;;;;5011179;28;20207;-78
2021/07/01 03:13:10;;;;;;;24.38;13.52;;;15.80;99.90;;;;;;5010668;28;20208;-78
2021/07/01 03:15:37;;;;;;;26.10;13.52;;;15.70;99.90;;;;;;5007052;28;20262;-78
2021/07/01 03:18:04;;;;;;;27.13;14.63;;;15.70;99.90;;;;;;5007517;28;20465;-77
2021/07/01 03:20:31;;;;;;;19.65;12.48;;;15.70;99.90;;;;;;5008450;28;20200;-77
2021/07/01 03:23:02;;;;;;;20.83;13.70;;;15.70;99.90;;;;;;5008819;28;20634;-78
2021/07/01 03:25:28;;;;;;;21.85;14.38;;;15.70;99.90;;;;;;4999391;28;20248;-78
2021/07/01 03:27:56;;;;;;;21.90;13.20;;;15.60;99.90;;;;;;5009992;28;20216;-78
2021/07/01 03:30:23;;;;;;;21.23;13.48;;;15.60;99.90;;;;;;5009963;28;20209;-78
2021/07/01 03:32:50;;;;;;;28.88;12.90;;;15.60;99.90;;;;;;5010252;28;20207;-78
2021/07/01 03:35:17;;;;;;;12.85;7.95;;;15.60;99.90;;;;;;5010663;28;20195;-78
2021/07/01 03:37:44;;;;;;;14.82;7.85;;;15.60;99.90;;;;;;5009266;28;20204;-78
2021/07/01 03:40:13;;;;;;;13.25;7.72;;;15.50;99.90;;;;;;5010668;28;20266;-79
2021/07/01 03:42:40;;;;;;;19.02;7.60;;;15.50;99.90;;;;;;5010844;28;20207;-79
2021/07/01 03:45:07;;;;;;;12.68;7.72;;;15.40;99.90;;;;;;5003499;28;20270;-78
2021/07/01 03:47:34;;;;;;;11.35;6.75;;;15.50;99.90;;;;;;5004335;28;20268;-79
2021/07/01 03:50:01;;;;;;;12.73;7.28;;;15.40;99.90;;;;;;5010208;28;20204;-79
2021/07/01 03:52:28;;;;;;;19.25;7.95;;;15.40;99.90;;;;;;5009714;28;20212;-79
2021/07/01 03:54:55;;;;;;;27.25;8.45;;;15.40;99.90;;;;;;5009401;28;20255;-79
2021/07/01 03:57:23;;;;;;;13.30;7.05;;;15.40;99.90;;;;;;5010696;28;20203;-78
2021/07/01 03:59:50;;;;;;;17.73;7.45;;;15.30;99.90;;;;;;5010137;28;20258;-78
2021/07/01 04:02:17;;;;;;;10.93;7.03;;;15.40;99.90;;;;;;5009447;28;20197;-78
2021/07/01 04:04:44;;;;;;;17.65;7.38;;;15.40;99.90;;;;;;5009199;28;20303;-78
2021/07/01 04:07:11;;;;;;;14.05;6.85;;;15.50;99.90;;;;;;5009070;28;20212;-79
2021/07/01 04:09:38;;;;;;;20.75;8.40;;;15.40;99.90;;;;;;5009531;28;20236;-79
2021/07/01 04:12:06;;;;;;;18.95;8.05;;;15.40;99.90;;;;;;5009361;28;20200;-79
2021/07/01 04:14:34;;;;;;;15.00;7.10;;;15.50;99.90;;;;;;5009868;28;20280;-79
2021/07/01 04:17:01;;;;;;;15.68;8.15;;;15.50;99.90;;;;;;5010551;28;20326;-79
2021/07/01 04:19:28;;;;;;;23.27;8.55;;;15.50;99.90;;;;;;5009798;28;20201;-79
2021/07/01 04:21:55;;;;;;;26.17;9.98;;;15.60;99.90;;;;;;5009833;28;20199;-79
2021/07/01 04:24:22;;;;;;;17.92;8.85;;;15.60;99.90;;;;;;5007050;28;20207;-79
2021/07/01 04:26:49;;;;;;;16.55;9.02;;;15.60;99.90;;;;;;5009602;28;20204;-79
2021/07/01 04:29:16;;;;;;;25.45;9.55;;;15.50;99.90;;;;;;5008710;28;20299;-80
2021/07/01 04:31:45;;;;;;;20.75;9.73;;;15.50;99.90;;;;;;5009935;28;20585;-80
2021/07/01 04:34:12;;;;;;;17.40;9.57;;;15.50;99.90;;;;;;5009018;28;20246;-79
2021/07/01 04:36:39;;;;;;;23.00;10.02;;;15.50;99.90;;;;;;5009502;28;20204;-79
2021/07/01 04:39:08;;;;;;;19.70;10.43;;;15.60;99.90;;;;;;5008406;28;20208;-79
2021/07/01 04:41:35;;;;;;;22.42;10.63;;;15.60;99.90;;;;;;5009242;28;20231;-79
2021/07/01 04:44:02;;;;;;;22.02;9.25;;;15.60;99.90;;;;;;5005741;28;20255;-79
2021/07/01 04:46:29;;;;;;;23.60;10.10;;;15.60;99.90;;;;;;5009629;28;20215;-79
2021/07/01 04:48:59;;;;;;;22.52;11.88;;;15.60;99.90;;;;;;5002973;28;20704;-80
2021/07/01 04:51:26;;;;;;;23.63;10.00;;;15.60;99.90;;;;;;5007522;28;20632;-79
2021/07/01 04:53:53;;;;;;;20.67;10.02;;;15.60;99.90;;;;;;5009917;28;20340;-80
2021/07/01 04:56:20;;;;;;;20.42;10.15;;;15.50;99.90;;;;;;5008868;28;20199;-79
2021/07/01 04:58:47;;;;;;;23.65;11.38;;;15.50;99.90;;;;;;5009987;28;20236;-78
2021/07/01 05:01:14;;;;;;;24.00;10.95;;;15.50;99.90;;;;;;5008752;28;20225;-78
2021/07/01 05:03:41;;;;;;;18.92;11.85;;;15.50;99.90;;;;;;5008480;28;20207;-77
2021/07/01 05:06:09;;;;;;;22.17;10.82;;;15.50;99.90;;;;;;5009026;28;20235;-79
2021/07/01 05:08:36;;;;;;;26.50;11.00;;;15.40;99.90;;;;;;5008975;28;20220;-79
2021/07/01 05:11:03;;;;;;;23.50;10.82;;;15.30;99.90;;;;;;5008346;28;20212;-79
2021/07/01 05:13:30;;;;;;;24.65;11.77;;;15.30;99.90;;;;;;5009397;28;20203;-79
2021/07/01 05:15:57;;;;;;;30.58;11.38;;;15.40;99.90;;;;;;5009985;28;20203;-79
2021/07/01 05:18:24;;;;;;;18.08;11.00;;;15.40;99.90;;;;;;5008978;28;20205;-79
2021/07/01 05:20:51;;;;;;;21.02;10.73;;;15.50;99.90;;;;;;5009126;28;20209;-79
2021/07/01 05:23:19;;;;;;;17.95;10.57;;;15.50;99.90;;;;;;5004271;28;20196;-79
2021/07/01 05:25:46;;;;;;;27.38;11.10;;;15.40;99.90;;;;;;5009025;28;20196;-79
2021/07/01 05:28:13;;;;;;;20.50;10.38;;;15.40;99.90;;;;;;5008856;28;20288;-79
2021/07/01 05:30:40;;;;;;;21.63;10.52;;;15.40;99.90;;;;;;5007988;28;20208;-79
2021/07/01 05:33:07;;;;;;;21.83;11.05;;;15.40;99.90;;;;;;5000528;28;20204;-79
2021/07/01 05:35:34;;;;;;;25.42;11.20;;;15.50;99.90;;;;;;5009508;28;20199;-79
2021/07/01 05:38:01;;;;;;;17.55;10.52;;;15.50;99.90;;;;;;5009068;28;20204;-80
2021/07/01 05:40:30;;;;;;;25.17;9.82;;;15.50;99.90;;;;;;5008485;28;20196;-78
2021/07/01 05:42:57;;;;;;;17.27;9.52;;;15.70;99.90;;;;;;5009003;28;20266;-78
2021/07/01 05:45:24;;;;;;;22.50;10.05;;;15.70;99.90;;;;;;5009089;28;20199;-78
2021/07/01 05:47:51;;;;;;;21.27;8.93;;;15.60;99.90;;;;;;5007997;28;20263;-78
2021/07/01 05:50:18;;;;;;;20.15;9.00;;;15.60;99.90;;;;;;5007336;28;20234;-78
2021/07/01 05:52:49;;;;;;;17.92;9.27;;;15.70;99.90;;;;;;5007584;28;20211;-78
2021/07/01 05:55:16;;;;;;;20.45;9.02;;;15.70;99.90;;;;;;5001490;28;20240;-78
2021/07/01 05:57:44;;;;;;;21.92;9.65;;;15.70;99.90;;;;;;5006813;28;20238;-77
2021/07/01 06:00:14;;;;;;;17.15;9.32;;;15.60;99.90;;;;;;5007477;28;20234;-78
2021/07/01 06:02:41;;;;;;;15.43;8.48;;;15.70;99.90;;;;;;5002075;28;20207;-77
2021/07/01 06:05:08;;;;;;;20.77;8.50;;;15.80;99.90;;;;;;5007665;28;20231;-78
2021/07/01 06:07:36;;;;;;;13.85;8.20;;;15.70;99.90;;;;;;5005993;28;20647;-78
2021/07/01 06:10:06;;;;;;;12.77;7.95;;;15.70;99.90;;;;;;5005927;28;20259;-77
2021/07/01 06:12:35;;;;;;;19.55;8.35;;;15.60;99.90;;;;;;5006117;28;20201;-77
2021/07/01 06:15:05;;;;;;;14.75;8.57;;;15.60;99.90;;;;;;5006949;28;20266;-78
2021/07/01 06:17:33;;;;;;;21.00;8.90;;;15.60;99.90;;;;;;5007851;28;20208;-78
2021/07/01 06:20:02;;;;;;;15.77;8.93;;;15.70;99.90;;;;;;5010153;28;20204;-79
2021/07/01 06:22:30;;;;;;;24.85;10.48;;;15.70;99.90;;;;;;5010249;28;20552;-79
2021/07/01 06:24:58;;;;;;;14.75;9.25;;;15.70;99.90;;;;;;5013815;28;20233;-79
2021/07/01 06:27:33;;;;;;;20.92;9.38;;;15.70;99.90;;;;;;5012469;28;20215;-80
2021/07/01 06:30:03;;;;;;;22.83;10.40;;;15.70;99.90;;;;;;5011982;28;20246;-79
2021/07/01 06:32:32;;;;;;;21.85;9.68;;;15.70;99.90;;;;;;5011491;28;20204;-80
2021/07/01 06:34:59;;;;;;;23.77;9.68;;;15.70;99.90;;;;;;5013027;28;20216;-79
2021/07/01 06:37:30;;;;;;;16.40;9.70;;;15.70;99.90;;;;;;5011509;28;20196;-79
2021/07/01 06:39:59;;;;;;;23.40;10.50;;;15.70;99.90;;;;;;5012433;28;20195;-79
2021/07/01 06:42:27;;;;;;;20.13;10.95;;;15.70;99.90;;;;;;5012424;28;20222;-79
2021/07/01 06:44:55;;;;;;;17.92;9.27;;;15.60;99.90;;;;;;5012226;28;20209;-79
2021/07/01 06:47:23;;;;;;;19.00;9.02;;;15.70;99.90;;;;;;5011397;28;20204;-79
2021/07/01 06:49:52;;;;;;;16.30;9.30;;;15.70;99.90;;;;;;5012334;28;20291;-80
2021/07/01 06:52:20;;;;;;;18.45;10.38;;;15.80;99.90;;;;;;5008796;28;20216;-80
2021/07/01 06:54:48;;;;;;;26.13;12.00;;;15.80;99.90;;;;;;5011771;28;20229;-79
2021/07/01 06:57:15;;;;;;;19.75;11.32;;;15.70;99.90;;;;;;5011746;28;20214;-79
2021/07/01 06:59:42;;;;;;;22.42;11.57;;;15.60;99.90;;;;;;5012308;28;20204;-79
2021/07/01 07:02:11;;;;;;;27.00;12.18;;;15.60;99.90;;;;;;5005687;28;20232;-79
2021/07/01 07:04:38;;;;;;;21.25;11.23;;;15.70;99.90;;;;;;5007449;28;20209;-79
2021/07/01 07:07:08;;;;;;;19.45;12.00;;;15.70;99.90;;;;;;5005444;28;20201;-80
2021/07/01 07:09:35;;;;;;;31.55;12.13;;;15.70;99.90;;;;;;5012311;28;20274;-79
2021/07/01 07:12:02;;;;;;;22.40;10.23;;;15.60;99.90;;;;;;5004813;28;20205;-79
2021/07/01 07:14:29;;;;;;;28.45;11.30;;;15.60;99.90;;;;;;5011267;28;20250;-79
2021/07/01 07:16:59;;;;;;;23.58;10.80;;;15.70;99.90;;;;;;5011279;28;20208;-79
2021/07/01 07:19:28;;;;;;;24.98;10.40;;;15.60;99.90;;;;;;5004316;28;20267;-78
2021/07/01 07:22:00;;;;;;;19.50;9.13;;;15.60;99.90;;;;;;5002658;28;20211;-77
2021/07/01 07:24:29;;;;;;;19.55;11.10;;;15.60;99.90;;;;;;5005235;28;20200;-78
2021/07/01 07:26:57;;;;;;;19.75;10.68;;;15.60;99.90;;;;;;5009024;28;20203;-78
2021/07/01 07:29:28;;;;;;;19.98;10.63;;;15.70;99.90;;;;;;5010470;28;20239;-78
2021/07/01 07:31:59;;;;;;;18.83;9.88;;;15.80;99.90;;;;;;5008334;28;20770;-79
2021/07/01 07:34:27;;;;;;;16.90;9.63;;;15.80;99.90;;;;;;5010053;28;20271;-78
2021/07/01 07:36:54;;;;;;;20.40;10.07;;;15.90;99.90;;;;;;5004916;28;20204;-78
2021/07/01 07:39:25;;;;;;;26.23;10.85;;;15.90;99.90;;;;;;5010009;28;20211;-78
2021/07/01 07:41:53;;;;;;;19.35;10.27;;;16.00;99.90;;;;;;5009158;28;20203;-77
2021/07/01 07:44:21;;;;;;;24.35;10.23;;;16.00;99.90;;;;;;5008684;28;20263;-78
2021/07/01 07:46:50;;;;;;;20.63;10.52;;;15.90;99.90;;;;;;5008692;28;20215;-78
2021/07/01 07:49:18;;;;;;;22.23;9.85;;;15.80;99.90;;;;;;5009462;28;20228;-78
2021/07/01 07:51:49;;;;;;;16.55;9.88;;;15.80;99.90;;;;;;5007672;28;20279;-78
2021/07/01 07:54:23;;;;;;;19.95;9.63;;;15.80;99.90;;;;;;5002467;28;20231;-78
2021/07/01 07:56:54;;;;;;;18.92;10.02;;;15.80;99.90;;;;;;5002870;28;20226;-79
2021/07/01 07:59:23;;;;;;;18.13;9.80;;;15.80;99.90;;;;;;5010755;28;20199;-79
2021/07/01 08:01:52;;;;;;;15.25;8.82;;;15.80;99.90;;;;;;5009645;28;20227;-79
2021/07/01 08:04:23;;;;;;;20.30;9.70;;;15.90;99.90;;;;;;5010332;28;20218;-79
2021/07/01 08:06:53;;;;;;;23.88;9.35;;;15.90;99.90;;;;;;5010426;28;20223;-79
2021/07/01 08:09:20;;;;;;;14.60;10.02;;;15.80;99.90;;;;;;5008724;28;20251;-79
2021/07/01 08:11:49;;;;;;;26.58;10.63;;;15.80;99.90;;;;;;5009609;28;20207;-79
2021/07/01 08:14:21;;;;;;;18.15;9.93;;;15.80;99.90;;;;;;5009487;28;20236;-79
2021/07/01 08:16:48;;;;;;;18.92;10.57;;;15.80;99.90;;;;;;5008648;28;20231;-79
2021/07/01 08:19:15;;;;;;;19.38;10.65;;;15.70;99.90;;;;;;5010237;28;20203;-79
2021/07/01 08:21:42;;;;;;;28.33;11.65;;;15.60;99.90;;;;;;5009136;28;20208;-79
2021/07/01 08:24:10;;;;;;;22.83;10.57;;;15.60;99.90;;;;;;5008312;28;20630;-79
2021/07/01 08:26:37;;;;;;;19.23;10.20;;;15.60;99.90;;;;;;5008961;28;20234;-79
2021/07/01 08:29:05;;;;;;;21.15;10.90;;;15.60;99.90;;;;;;5001951;28;20209;-79
2021/07/01 08:31:34;;;;;;;17.13;10.75;;;15.60;99.90;;;;;;5006270;28;20212;-79
2021/07/01 08:34:06;;;;;;;20.85;10.75;;;15.70;99.90;;;;;;5007434;28;20203;-79
2021/07/01 08:36:36;;;;;;;18.55;9.70;;;15.80;99.90;;;;;;5007337;28;20294;-79
2021/07/01 08:39:12;;;;;;;16.67;9.98;;;15.90;99.90;;;;;;5005665;28;20216;-79
2021/07/01 08:45:09;;;;;;;23.67;11.07;;;15.90;99.90;;;;;;5000549;28;20243;-78
2021/07/01 08:47:40;;;;;;;20.80;11.77;;;15.90;99.90;;;;;;5006189;28;20200;-78
2021/07/01 08:50:10;;;;;;;24.98;11.85;;;15.90;99.90;;;;;;5006840;28;20267;-78
2021/07/01 08:52:47;;;;;;;27.33;11.90;;;15.80;99.90;;;;;;5006031;28;20267;-77
2021/07/01 08:55:19;;;;;;;24.50;9.82;;;15.80;99.90;;;;;;5000598;28;20227;-78
2021/07/01 08:57:50;;;;;;;20.45;9.90;;;15.70;99.90;;;;;;5005497;28;20297;-78
2021/07/01 09:00:18;;;;;;;20.70;10.00;;;15.70;99.90;;;;;;4998490;28;20197;-78
2021/07/01 09:03:03;;;;;;;21.48;9.98;;;15.70;99.90;;;;;;5002951;28;20239;-78
2021/07/01 09:05:32;;;;;;;17.42;8.63;;;15.60;99.90;;;;;;5007418;28;20659;-78
2021/07/01 09:08:00;;;;;;;16.35;9.18;;;15.80;99.90;;;;;;5007853;28;20235;-78
2021/07/01 09:10:31;;;;;;;21.55;11.18;;;15.90;99.90;;;;;;5006599;28;20220;-78
2021/07/01 09:12:59;;;;;;;22.55;12.68;;;15.90;99.90;;;;;;5001804;28;20218;-78
2021/07/01 09:15:29;;;;;;;29.85;13.93;;;15.90;99.90;;;;;;5003021;28;20273;-79
2021/07/01 09:17:58;;;;;;;26.77;12.63;;;15.90;99.90;;;;;;5005896;28;20210;-79
2021/07/01 09:20:32;;;;;;;25.42;10.45;;;16.00;99.90;;;;;;5006597;28;20207;-78
2021/07/01 09:22:59;;;;;;;27.25;12.32;;;16.00;99.90;;;;;;5006445;28;20194;-77
2021/07/01 09:25:26;;;;;;;29.02;12.23;;;16.00;99.90;;;;;;5005064;28;20238;-77
2021/07/01 09:27:54;;;;;;;23.20;10.70;;;15.90;99.90;;;;;;5005679;28;20203;-77
2021/07/01 09:30:25;;;;;;;15.65;10.38;;;16.00;99.90;;;;;;5005076;28;20254;-78
2021/07/01 09:32:55;;;;;;;19.05;9.02;;;16.00;99.90;;;;;;5005103;28;20625;-78
2021/07/01 09:35:25;;;;;;;13.65;8.25;;;16.00;99.90;;;;;;4999231;28;20208;-78
2021/07/01 09:37:53;;;;;;;17.33;8.32;;;16.10;99.90;;;;;;4999733;28;20208;-78
2021/07/01 09:40:21;;;;;;;13.80;7.35;;;16.10;99.90;;;;;;5007902;28;20196;-78
2021/07/01 09:42:52;;;;;;;20.58;9.13;;;16.10;99.90;;;;;;5008205;28;20282;-79
2021/07/01 09:45:23;;;;;;;14.00;8.40;;;16.10;99.90;;;;;;4996459;28;20215;-79
2021/07/01 09:47:54;;;;;;;17.52;8.27;;;16.10;99.90;;;;;;5011960;28;20220;-78
2021/07/01 09:50:25;;;;;;;18.30;7.97;;;16.10;99.90;;;;;;5014172;28;20254;-78
2021/07/01 09:52:56;;;;;;;15.45;8.23;;;16.20;99.90;;;;;;5011289;28;20205;-78
2021/07/01 09:55:28;;;;;;;25.88;8.32;;;16.10;99.90;;;;;;5003946;28;20311;-78
2021/07/01 09:57:57;;;;;;;11.20;6.65;;;16.10;99.90;;;;;;5003750;28;20276;-77
2021/07/01 10:00:28;;;;;;;12.48;7.43;;;16.00;99.90;;;;;;5002775;28;20243;-78
2021/07/01 10:08:38;;;;;;;16.75;7.63;;;16.00;99.90;;;;;;5095376;28;20206;-77
2021/07/01 10:11:06;;;;;;;18.48;7.68;;;15.90;99.90;;;;;;5093546;28;20313;-78
2021/07/01 10:13:35;;;;;;;17.35;8.32;;;16.00;99.90;;;;;;5085462;28;20232;-78
2021/07/01 10:16:03;;;;;;;18.42;8.10;;;16.00;99.90;;;;;;5089039;28;20253;-77
2021/07/01 10:18:41;;;;;;;19.80;8.50;;;16.10;99.90;;;;;;5083980;28;20199;-77
2021/07/01 10:21:16;;;;;;;19.55;9.60;;;16.20;99.90;;;;;;5083476;28;20200;-77
2021/07/01 10:23:45;;;;;;;20.02;9.10;;;16.30;99.90;;;;;;5088966;28;20723;-77
2021/07/01 10:26:13;;;;;;;23.10;9.18;;;16.30;99.90;;;;;;5090400;28;20262;-77
2021/07/01 10:28:41;;;;;;;27.70;10.27;;;16.50;99.90;;;;;;5082940;28;20267;-77
2021/07/01 10:31:11;;;;;;;19.20;9.50;;;16.50;99.90;;;;;;5090264;28;20207;-77
2021/07/01 10:33:39;;;;;;;34.40;10.95;;;16.50;99.90;;;;;;5085384;28;20251;-75
2021/07/01 10:36:14;;;;;;;26.60;12.15;;;16.60;99.90;;;;;;5081851;28;20203;-75
2021/07/01 10:38:44;;;;;;;21.98;10.38;;;16.60;99.90;;;;;;5082774;28;20236;-75
2021/07/01 10:41:12;;;;;;;29.67;11.48;;;16.60;99.90;;;;;;5081275;28;20203;-76
2021/07/01 10:43:41;;;;;;;22.60;10.82;;;16.60;99.90;;;;;;5081439;28;20226;-75
2021/07/01 10:46:08;;;;;;;25.33;12.40;;;16.60;99.90;;;;;;5082180;28;20213;-75
2021/07/01 10:48:35;;;;;;;23.48;11.30;;;16.60;99.90;;;;;;5081943;28;20256;-75
2021/07/01 10:51:08;;;;;;;24.27;11.88;;;16.60;99.90;;;;;;5081770;28;20240;-75
2021/07/01 10:53:38;;;;;;;27.35;10.93;;;16.60;99.90;;;;;;5080975;28;20260;-75
2021/07/01 10:56:09;;;;;;;23.00;11.82;;;16.40;99.90;;;;;;5081718;28;20221;-75
2021/07/01 10:58:37;;;;;;;25.13;9.93;;;16.30;99.90;;;;;;5082766;28;20201;-75
2021/07/01 11:01:05;;;;;;;25.77;9.55;;;16.40;99.90;;;;;;5099829;28;20197;-75
2021/07/01 11:03:35;;;;;;;27.10;13.38;;;16.50;99.90;;;;;;5092459;28;20229;-75
2021/07/01 11:06:03;;;;;;;30.48;12.98;;;16.50;99.90;;;;;;5084649;28;20226;-76
2021/07/01 11:08:32;;;;;;;22.25;10.77;;;16.40;99.90;;;;;;5081121;28;20234;-75
2021/07/01 11:11:00;;;;;;;22.95;12.55;;;16.40;99.90;;;;;;5083316;28;20260;-76
2021/07/01 11:13:30;;;;;;;22.27;11.02;;;16.40;99.90;;;;;;5094547;28;20207;-76
2021/07/01 11:16:09;;;;;;;25.05;10.48;;;16.40;99.90;;;;;;5070649;28;20199;-76
2021/07/01 11:18:38;;;;;;;23.15;10.18;;;16.50;99.90;;;;;;5068158;28;20231;-76
2021/07/01 11:21:22;;;;;;;15.90;10.13;;;16.60;99.90;;;;;;5068186;28;20204;-75
2021/07/01 11:23:52;;;;;;;21.70;10.48;;;16.50;99.90;;;;;;5068698;28;20284;-75
2021/07/01 11:26:30;;;;;;;16.63;10.32;;;16.60;99.90;;;;;;5083593;28;20195;-75
2021/07/01 11:29:00;;;;;;;23.67;10.27;;;16.50;99.90;;;;;;5072623;28;20203;-76
2021/07/01 11:31:35;;;;;;;19.33;10.05;;;16.60;99.90;;;;;;5070658;28;20511;-75
2021/07/01 11:34:02;;;;;;;24.10;9.85;;;16.70;99.90;;;;;;5073358;28;20294;-75
2021/07/01 11:36:30;;;;;;;24.27;10.55;;;16.70;99.90;;;;;;5067936;28;20204;-75
2021/07/01 11:39:12;;;;;;;20.40;10.00;;;16.60;99.90;;;;;;5067925;28;20199;-75
2021/07/01 11:41:40;;;;;;;15.20;8.40;;;16.70;99.90;;;;;;5067306;28;20211;-75
2021/07/01 11:44:11;;;;;;;22.25;9.02;;;16.60;99.90;;;;;;5072818;28;20221;-75
2021/07/01 11:46:39;;;;;;;19.85;9.57;;;16.40;99.90;;;;;;5070131;28;20261;-75
2021/07/01 11:49:07;;;;;;;17.48;9.50;;;16.40;99.90;;;;;;5076393;28;20523;-75
2021/07/01 11:51:35;;;;;;;14.75;8.65;;;16.30;99.90;;;;;;5070079;28;20215;-75
2021/07/01 11:54:03;;;;;;;19.33;9.07;;;16.30;99.90;;;;;;5066921;28;20211;-75
2021/07/01 11:56:53;;;;;;;17.50;9.07;;;16.20;99.90;;;;;;5071559;28;20227;-75
2021/07/01 11:59:20;;;;;;;16.67;10.73;;;16.10;99.90;;;;;;5069039;28;20244;-74
2021/07/01 12:01:47;;;;;;;17.50;10.05;;;15.90;99.90;;;;;;5067333;28;20269;-75
2021/07/01 12:04:16;;;;;;;19.52;10.63;;;15.90;99.90;;;;;;5074741;28;20242;-75
2021/07/01 12:06:49;;;;;;;23.75;11.32;;;15.90;99.90;;;;;;5078685;28;20206;-76
2021/07/01 12:09:17;;;;;;;18.58;10.70;;;15.90;99.90;;;;;;5073299;28;20277;-75
2021/07/01 12:12:12;;;;;;;18.15;8.82;;;15.90;99.90;;;;;;5078250;28;20230;-75
2021/07/01 12:14:43;;;;;;;14.48;8.10;;;15.80;99.90;;;;;;5066456;28;20203;-75
2021/07/01 12:17:10;;;;;;;14.88;8.32;;;15.90;99.90;;;;;;5067857;28;20262;-74
2021/07/01 12:20:03;;;;;;;11.60;8.27;;;15.90;99.90;;;;;;5070639;28;20334;-75
2021/07/01 12:22:47;;;;;;;16.75;9.63;;;16.00;99.90;;;;;;5071847;28;20647;-75
2021/07/01 12:25:39;;;;;;;14.15;8.95;;;16.10;99.90;;;;;;5066082;28;20212;-75
2021/07/01 12:28:10;;;;;;;18.88;10.88;;;16.20;99.90;;;;;;5065990;28;20239;-75
2021/07/01 12:30:55;;;;;;;18.27;9.75;;;16.30;99.90;;;;;;5065853;28;20924;-75
2021/07/01 12:33:38;;;;;;;19.42;10.57;;;16.30;99.90;;;;;;5071349;28;20208;-74
2021/07/01 12:36:08;;;;;;;20.33;10.30;;;16.40;99.90;;;;;;5069338;28;20229;-74
2021/07/01 12:38:35;;;;;;;15.80;10.55;;;16.40;99.90;;;;;;5068929;28;20210;-74
2021/07/01 12:41:04;;;;;;;19.13;11.50;;;16.40;99.90;;;;;;5070809;28;20266;-75
2021/07/01 12:43:54;;;;;;;16.33;10.35;;;16.50;99.90;;;;;;5065715;28;20229;-74
2021/07/01 12:46:56;;;;;;;15.07;9.52;;;16.50;99.90;;;;;;5064664;28;20226;-74
2021/07/01 12:50:01;;;;;;;13.88;8.75;;;16.60;99.90;;;;;;5060031;28;20203;-75